createdAt,value
2018-09-19T00:00:21.697Z,17.30
2018-09-19T00:02:50.084Z,17.20
2018-09-19T00:05:18.633Z,17.20
2018-09-19T00:07:47.103Z,17.10
2018-09-19T00:10:16.864Z,17.10
2018-09-19T00:12:45.252Z,17.10
2018-09-19T00:15:13.658Z,17.10
2018-09-19T00:17:42.092Z,17.00
2018-09-19T00:20:10.585Z,17.10
2018-09-19T00:22:39.141Z,17.00
2018-09-19T00:25:07.575Z,17.00
2018-09-19T00:27:36.069Z,17.00
2018-09-19T00:30:04.563Z,17.00
2018-09-19T00:32:33.006Z,16.90
2018-09-19T00:35:01.449Z,16.90
2018-09-19T00:37:29.841Z,16.90
2018-09-19T00:39:58.241Z,16.90
2018-09-19T00:42:26.805Z,16.90
2018-09-19T00:44:55.259Z,16.90
2018-09-19T00:47:23.673Z,16.80
2018-09-19T00:49:52.121Z,16.80
2018-09-19T00:52:20.546Z,16.80
2018-09-19T00:54:48.952Z,16.70
2018-09-19T00:57:17.383Z,16.70
2018-09-19T00:59:45.814Z,16.70
2018-09-19T01:02:14.201Z,16.70
2018-09-19T01:04:42.614Z,16.60
2018-09-19T01:07:11.131Z,16.60
2018-09-19T01:09:39.481Z,16.60
2018-09-19T01:12:07.925Z,16.50
2018-09-19T01:14:36.404Z,16.50
2018-09-19T01:17:04.950Z,16.50
2018-09-19T01:19:33.507Z,16.40
2018-09-19T01:22:01.879Z,16.40
2018-09-19T01:24:30.459Z,16.40
2018-09-19T01:26:58.942Z,16.30
2018-09-19T01:29:27.444Z,16.30
2018-09-19T01:31:56.289Z,16.30
2018-09-19T01:34:24.790Z,16.20
2018-09-19T01:36:53.173Z,16.20
2018-09-19T01:39:27.607Z,16.10
2018-09-19T01:41:56.042Z,16.10
2018-09-19T01:44:24.509Z,16.10
2018-09-19T01:46:53.040Z,16.10
2018-09-19T01:49:21.424Z,16.00
2018-09-19T01:51:53.994Z,16.00
2018-09-19T01:54:23.239Z,16.00
2018-09-19T01:56:51.761Z,16.00
2018-09-19T01:59:20.170Z,15.90
2018-09-19T02:01:48.612Z,15.90
2018-09-19T02:04:17.380Z,15.90
2018-09-19T02:06:45.803Z,15.90
2018-09-19T02:09:14.402Z,15.80
2018-09-19T02:11:43.168Z,15.80
2018-09-19T02:14:12.572Z,15.80
2018-09-19T02:16:41.009Z,15.70
2018-09-19T02:19:09.863Z,15.70
2018-09-19T02:21:38.362Z,15.70
2018-09-19T02:24:06.833Z,15.70
2018-09-19T02:26:35.231Z,15.70
2018-09-19T02:29:03.605Z,15.60
2018-09-19T02:31:32.189Z,15.60
2018-09-19T02:34:00.568Z,15.60
2018-09-19T02:36:34.999Z,15.60
2018-09-19T02:39:03.736Z,15.50
2018-09-19T02:41:32.117Z,15.50
2018-09-19T02:44:00.497Z,15.50
2018-09-19T02:46:28.951Z,15.50
2018-09-19T02:48:57.220Z,15.40
2018-09-19T02:51:25.588Z,15.40
2018-09-19T02:53:53.943Z,15.40
2018-09-19T02:56:22.334Z,15.30
2018-09-19T02:58:50.729Z,15.30
2018-09-19T03:01:22.996Z,15.30
2018-09-19T03:03:51.357Z,15.30
2018-09-19T03:08:53.344Z,15.20
2018-09-19T03:11:21.737Z,15.20
2018-09-19T03:13:50.184Z,15.20
2018-09-19T03:16:18.774Z,15.20
2018-09-19T03:18:47.163Z,15.20
2018-09-19T03:21:15.849Z,15.10
2018-09-19T03:23:44.130Z,15.10
2018-09-19T03:26:12.559Z,15.10
2018-09-19T03:28:40.892Z,15.10
2018-09-19T03:31:09.437Z,15.10
2018-09-19T03:33:37.927Z,15.00
2018-09-19T03:36:06.305Z,15.00
2018-09-19T03:38:34.708Z,15.00
2018-09-19T03:41:03.044Z,15.00
2018-09-19T03:43:31.425Z,14.90
2018-09-19T03:45:59.781Z,14.90
2018-09-19T03:48:28.200Z,14.90
2018-09-19T03:50:56.548Z,14.90
2018-09-19T03:53:26.209Z,14.80
2018-09-19T03:55:54.684Z,14.80
2018-09-19T03:58:23.049Z,14.70
2018-09-19T04:00:51.381Z,14.60
2018-09-19T04:03:19.796Z,14.60
2018-09-19T04:05:48.205Z,14.60
2018-09-19T04:08:16.635Z,14.60
2018-09-19T04:10:44.904Z,14.60
2018-09-19T04:13:13.270Z,14.60
2018-09-19T04:15:41.631Z,14.60
2018-09-19T04:18:10.029Z,14.60
2018-09-19T04:20:38.560Z,14.60
2018-09-19T04:23:07.647Z,14.60
2018-09-19T04:25:36.035Z,14.60
2018-09-19T04:28:08.013Z,14.60
2018-09-19T04:30:36.354Z,14.60
2018-09-19T04:33:04.768Z,14.60
2018-09-19T04:35:33.208Z,14.60
2018-09-19T04:38:01.577Z,14.60
2018-09-19T04:40:30.364Z,14.60
2018-09-19T04:42:58.792Z,14.60
2018-09-19T04:45:27.433Z,14.50
2018-09-19T04:47:55.817Z,14.50
2018-09-19T04:50:24.222Z,14.40
2018-09-19T04:52:52.647Z,14.40
2018-09-19T04:55:21.065Z,14.40
2018-09-19T04:57:49.498Z,14.30
2018-09-19T05:00:17.920Z,14.20
2018-09-19T05:02:46.271Z,14.20
2018-09-19T05:05:14.645Z,14.20
2018-09-19T05:07:43.104Z,14.20
2018-09-19T05:10:11.466Z,14.20
2018-09-19T05:12:39.820Z,14.20
2018-09-19T05:15:08.169Z,14.20
2018-09-19T05:17:36.610Z,14.20
2018-09-19T05:20:04.982Z,14.20
2018-09-19T05:22:33.955Z,14.20
2018-09-19T05:25:04.260Z,14.20
2018-09-19T05:27:32.673Z,14.20
2018-09-19T05:30:01.070Z,14.20
2018-09-19T05:32:29.512Z,14.20
2018-09-19T05:34:57.802Z,14.30
2018-09-19T05:37:26.094Z,14.30
2018-09-19T05:39:54.478Z,14.30
2018-09-19T05:42:22.879Z,14.40
2018-09-19T05:44:51.537Z,14.40
2018-09-19T05:47:19.872Z,14.40
2018-09-19T05:49:48.139Z,14.40
2018-09-19T05:52:16.362Z,14.40
2018-09-19T05:54:45.003Z,14.40
2018-09-19T05:57:13.625Z,14.40
2018-09-19T05:59:41.932Z,14.40
2018-09-19T06:02:10.300Z,14.40
2018-09-19T06:04:41.003Z,14.40
2018-09-19T06:07:10.285Z,14.40
2018-09-19T06:09:38.619Z,14.40
2018-09-19T06:12:07.104Z,14.40
2018-09-19T06:14:36.918Z,14.50
2018-09-19T06:17:05.224Z,14.50
2018-09-19T06:19:33.701Z,14.50
2018-09-19T06:22:01.982Z,14.50
2018-09-19T06:24:31.617Z,14.50
2018-09-19T06:27:00.599Z,14.60
2018-09-19T06:29:28.917Z,14.60
2018-09-19T06:31:57.419Z,14.70
2018-09-19T06:34:25.752Z,14.70
2018-09-19T06:36:54.186Z,14.80
2018-09-19T06:39:22.469Z,14.80
2018-09-19T06:41:50.752Z,14.90
2018-09-19T06:44:19.100Z,15.00
2018-09-19T06:46:47.427Z,15.00
2018-09-19T06:49:16.056Z,15.10
2018-09-19T06:51:44.489Z,15.10
2018-09-19T06:54:12.838Z,15.20
2018-09-19T06:56:41.160Z,15.30
2018-09-19T06:59:09.428Z,15.30
2018-09-19T07:01:37.742Z,15.40
2018-09-19T07:04:06.353Z,15.50
2018-09-19T07:06:34.661Z,15.60
2018-09-19T07:09:03.215Z,15.70
2018-09-19T07:11:31.494Z,15.80
2018-09-19T07:13:59.853Z,15.90
2018-09-19T07:16:28.114Z,15.90
2018-09-19T07:18:56.487Z,16.00
2018-09-19T07:21:24.789Z,16.10
2018-09-19T07:23:53.209Z,16.20
2018-09-19T07:26:24.077Z,16.30
2018-09-19T07:28:52.415Z,16.30
2018-09-19T07:31:20.664Z,16.40
2018-09-19T07:33:49.009Z,16.50
2018-09-19T07:36:17.287Z,16.60
2018-09-19T07:38:45.790Z,16.70
2018-09-19T07:41:14.127Z,16.80
2018-09-19T07:43:43.761Z,16.80
2018-09-19T07:46:12.222Z,16.90
2018-09-19T07:48:40.515Z,17.00
2018-09-19T07:51:08.966Z,17.10
2018-09-19T07:53:37.337Z,17.10
2018-09-19T07:56:05.748Z,17.30
2018-09-19T07:58:34.106Z,17.30
2018-09-19T08:01:02.495Z,17.50
2018-09-19T08:03:30.758Z,17.60
2018-09-19T08:05:59.118Z,17.70
2018-09-19T08:08:27.452Z,17.80
2018-09-19T08:10:56.096Z,17.90
2018-09-19T08:13:24.435Z,18.00
2018-09-19T08:15:52.812Z,18.10
2018-09-19T08:18:21.186Z,18.30
2018-09-19T08:20:49.480Z,18.40
2018-09-19T08:23:17.858Z,18.50
2018-09-19T08:25:46.145Z,18.60
2018-09-19T08:28:16.484Z,18.70
2018-09-19T08:30:44.917Z,18.80
2018-09-19T08:33:13.207Z,18.90
2018-09-19T08:35:41.485Z,19.10
2018-09-19T08:38:09.852Z,19.30
2018-09-19T08:40:49.272Z,19.50
2018-09-19T08:43:17.682Z,19.70
2018-09-19T08:45:46.054Z,19.80
2018-09-19T08:48:14.314Z,20.00
2018-09-19T08:50:42.722Z,20.10
2018-09-19T08:53:12.694Z,20.10
2018-09-19T08:55:41.339Z,20.10
2018-09-19T08:58:10.003Z,20.00
2018-09-19T09:00:38.287Z,20.00
2018-09-19T09:03:06.672Z,20.10
2018-09-19T09:05:35.951Z,20.10
2018-09-19T09:08:04.549Z,20.20
2018-09-19T09:10:33.229Z,20.40
2018-09-19T09:13:01.574Z,20.50
2018-09-19T09:15:30.625Z,20.60
2018-09-19T09:17:58.968Z,20.70
2018-09-19T09:20:27.466Z,20.80
2018-09-19T09:22:55.923Z,21.00
2018-09-19T09:25:25.035Z,21.10
2018-09-19T09:27:54.299Z,21.20
2018-09-19T09:30:22.622Z,21.30
2018-09-19T09:32:51.278Z,21.40
2018-09-19T09:35:19.806Z,21.50
2018-09-19T09:37:48.183Z,21.60
2018-09-19T09:40:16.491Z,21.70
2018-09-19T09:42:44.817Z,21.80
2018-09-19T09:45:13.164Z,21.90
2018-09-19T09:47:41.761Z,22.00
2018-09-19T09:50:10.204Z,22.10
2018-09-19T09:52:38.516Z,22.20
2018-09-19T09:55:06.944Z,22.30
2018-09-19T09:57:35.368Z,22.40
2018-09-19T10:00:03.728Z,22.50
2018-09-19T10:02:32.600Z,22.60
2018-09-19T10:05:00.933Z,22.70
2018-09-19T10:07:29.465Z,22.80
2018-09-19T10:09:57.888Z,22.90
2018-09-19T10:12:26.549Z,23.00
2018-09-19T10:14:54.936Z,23.00
2018-09-19T10:17:23.407Z,23.10
2018-09-19T10:19:52.432Z,23.30
2018-09-19T10:22:20.793Z,23.40
2018-09-19T10:24:49.333Z,23.50
2018-09-19T10:27:17.684Z,23.60
2018-09-19T10:29:46.519Z,23.60
2018-09-19T10:32:15.026Z,23.70
2018-09-19T10:34:43.406Z,23.90
2018-09-19T10:37:11.729Z,24.00
2018-09-19T10:39:40.035Z,24.10
2018-09-19T10:42:08.872Z,24.10
2018-09-19T10:44:37.564Z,24.20
2018-09-19T10:47:05.977Z,24.20
2018-09-19T10:49:34.772Z,24.10
2018-09-19T10:52:03.077Z,24.10
2018-09-19T10:54:31.436Z,24.00
2018-09-19T10:56:59.869Z,24.00
2018-09-19T10:59:31.992Z,24.00
2018-09-19T11:02:00.363Z,24.00
2018-09-19T11:04:28.665Z,24.00
2018-09-19T11:06:57.367Z,24.00
2018-09-19T11:09:25.697Z,24.10
2018-09-19T11:11:53.990Z,24.10
2018-09-19T11:14:22.298Z,24.10
2018-09-19T11:16:50.680Z,24.10
2018-09-19T11:19:23.922Z,24.20
2018-09-19T11:21:52.413Z,24.40
2018-09-19T11:24:20.869Z,24.60
2018-09-19T11:26:49.233Z,24.70
2018-09-19T11:29:20.398Z,24.80
2018-09-19T11:31:48.796Z,24.80
2018-09-19T11:34:17.844Z,24.80
2018-09-19T11:36:46.171Z,24.90
2018-09-19T11:39:14.578Z,25.10
2018-09-19T11:41:42.975Z,25.30
2018-09-19T11:44:11.327Z,25.50
2018-09-19T11:46:39.637Z,25.70
2018-09-19T11:49:08.042Z,25.80
2018-09-19T11:51:36.530Z,26.00
2018-09-19T11:54:04.863Z,26.20
2018-09-19T11:56:33.781Z,26.30
2018-09-19T11:59:02.995Z,26.40
2018-09-19T12:01:31.375Z,26.60
2018-09-19T12:04:05.625Z,26.70
2018-09-19T12:06:36.431Z,26.80
2018-09-19T12:09:08.089Z,26.80
2018-09-19T12:11:37.024Z,26.80
2018-09-19T12:14:05.838Z,26.80
2018-09-19T12:16:34.217Z,26.80
2018-09-19T12:19:04.074Z,26.70
2018-09-19T12:21:33.521Z,26.70
2018-09-19T12:24:03.276Z,26.70
2018-09-19T12:26:34.579Z,26.80
2018-09-19T12:29:02.892Z,26.80
2018-09-19T12:31:31.306Z,26.70
2018-09-19T12:34:01.370Z,26.60
2018-09-19T12:36:29.773Z,26.70
2018-09-19T12:38:58.261Z,26.70
2018-09-19T12:41:26.738Z,26.80
2018-09-19T12:43:55.208Z,26.90
2018-09-19T12:46:24.258Z,27.10
2018-09-19T12:48:52.663Z,27.20
2018-09-19T12:51:21.054Z,27.20
2018-09-19T12:53:49.508Z,27.30
2018-09-19T12:56:18.339Z,27.40
2018-09-19T12:58:46.831Z,27.50
2018-09-19T13:01:15.216Z,27.60
2018-09-19T13:03:43.623Z,27.60
2018-09-19T13:06:11.943Z,27.60
2018-09-19T13:08:40.381Z,27.60
2018-09-19T13:11:08.918Z,27.60
2018-09-19T13:13:38.238Z,27.60
2018-09-19T13:16:06.912Z,27.60
2018-09-19T13:18:35.551Z,27.60
2018-09-19T13:21:03.964Z,27.60
2018-09-19T13:23:32.498Z,27.60
2018-09-19T13:26:00.856Z,27.50
2018-09-19T13:28:29.230Z,27.50
2018-09-19T13:30:57.562Z,27.40
2018-09-19T13:33:25.918Z,27.40
2018-09-19T13:35:54.202Z,27.40
2018-09-19T13:38:22.524Z,27.50
2018-09-19T13:40:51.761Z,27.40
2018-09-19T13:43:20.192Z,27.30
2018-09-19T13:45:49.329Z,27.30
2018-09-19T13:48:17.617Z,27.40
2018-09-19T13:51:03.090Z,27.50
2018-09-19T13:53:31.507Z,27.50
2018-09-19T13:56:00.007Z,27.40
2018-09-19T13:58:28.414Z,27.30
2018-09-19T14:01:03.674Z,27.20
2018-09-19T14:03:32.093Z,27.20
2018-09-19T14:06:07.993Z,27.20
2018-09-19T14:08:36.479Z,27.20
2018-09-19T14:11:04.971Z,27.30
2018-09-19T14:13:34.481Z,27.40
2018-09-19T14:16:20.174Z,27.40
2018-09-19T14:18:48.567Z,27.50
2018-09-19T14:21:17.153Z,27.50
2018-09-19T14:23:51.003Z,27.50
2018-09-19T14:26:19.619Z,27.50
2018-09-19T14:28:48.098Z,27.60
2018-09-19T14:31:16.542Z,27.60
2018-09-19T14:33:51.725Z,27.60
2018-09-19T14:36:20.075Z,27.70
2018-09-19T14:38:54.456Z,27.70
2018-09-19T14:41:23.056Z,27.70
2018-09-19T14:44:00.926Z,27.80
2018-09-19T14:46:29.323Z,27.80
2018-09-19T14:48:57.759Z,27.90
2018-09-19T14:51:26.233Z,27.90
2018-09-19T14:53:58.524Z,27.90
2018-09-19T14:56:27.106Z,27.90
2018-09-19T14:58:56.006Z,27.80
2018-09-19T15:01:24.361Z,27.80
2018-09-19T15:03:52.801Z,27.80
2018-09-19T15:06:21.192Z,27.70
2018-09-19T15:09:02.281Z,27.70
2018-09-19T15:11:31.488Z,27.60
2018-09-19T15:13:59.979Z,27.60
2018-09-19T15:16:28.429Z,27.50
2018-09-19T15:18:56.894Z,27.50
2018-09-19T15:21:29.019Z,27.40
2018-09-19T15:23:57.402Z,27.30
2018-09-19T15:26:25.769Z,27.20
2018-09-19T15:28:54.254Z,27.20
2018-09-19T15:34:00.166Z,27.00
2018-09-19T15:36:29.411Z,27.00
2018-09-19T15:38:57.846Z,26.90
2018-09-19T15:41:26.192Z,26.90
2018-09-19T15:43:59.661Z,26.80
2018-09-19T15:46:29.716Z,26.80
2018-09-19T15:48:58.099Z,26.80
2018-09-19T15:51:41.911Z,26.70
2018-09-19T15:54:10.467Z,26.70
2018-09-19T15:56:38.870Z,26.60
2018-09-19T15:59:07.322Z,26.60
2018-09-19T16:01:37.871Z,26.60
2018-09-19T16:04:06.250Z,26.50
2018-09-19T16:06:44.801Z,26.40
2018-09-19T16:09:13.126Z,26.40
2018-09-19T16:11:41.475Z,26.40
2018-09-19T16:14:11.328Z,26.30
2018-09-19T16:16:39.760Z,26.30
2018-09-19T16:19:08.174Z,26.20
2018-09-19T16:21:36.689Z,26.20
2018-09-19T16:24:07.252Z,26.10
2018-09-19T16:26:35.605Z,26.10
2018-09-19T16:29:03.931Z,26.10
2018-09-19T16:31:32.311Z,26.00
2018-09-19T16:34:04.514Z,25.90
2018-09-19T16:36:51.046Z,25.90
2018-09-19T16:42:15.365Z,25.80
2018-09-19T16:44:43.862Z,25.70
2018-09-19T16:47:16.745Z,25.70
2018-09-19T16:49:46.185Z,25.60
2018-09-19T16:52:22.644Z,25.50
2018-09-19T16:54:54.405Z,25.50
2018-09-19T16:57:23.998Z,25.50
2018-09-19T16:59:52.558Z,25.40
2018-09-19T17:02:24.618Z,25.30
2018-09-19T17:04:53.447Z,25.30
2018-09-19T17:07:23.903Z,25.20
2018-09-19T17:09:52.423Z,25.10
2018-09-19T17:12:20.895Z,25.00
2018-09-19T17:14:49.707Z,25.00
2018-09-19T17:17:18.400Z,24.90
2018-09-19T17:19:47.108Z,24.80
2018-09-19T17:22:15.645Z,24.80
2018-09-19T17:24:45.696Z,24.70
2018-09-19T17:27:14.199Z,24.70
2018-09-19T17:29:43.023Z,24.60
2018-09-19T17:32:17.698Z,24.50
2018-09-19T17:34:46.373Z,24.40
2018-09-19T17:37:14.739Z,24.20
2018-09-19T17:39:43.566Z,24.10
2018-09-19T17:42:12.150Z,24.00
2018-09-19T18:04:55.133Z,23.20
2018-09-19T18:10:36.870Z,23.10
2018-09-19T18:13:05.549Z,23.00
2018-09-19T18:15:35.020Z,22.90
2018-09-19T18:18:04.776Z,22.90
2018-09-19T18:20:33.561Z,22.80
2018-09-19T18:23:02.106Z,22.70
2018-09-19T18:25:30.726Z,22.70
2018-09-19T18:27:59.330Z,22.60
2018-09-19T18:33:22.633Z,22.50
2018-09-19T18:35:51.222Z,22.50
2018-09-19T18:38:19.670Z,22.40
2018-09-19T18:40:54.606Z,22.30
2018-09-19T18:43:23.085Z,22.30
2018-09-19T18:45:51.838Z,22.20
2018-09-19T18:48:20.361Z,22.20
2018-09-19T18:50:48.930Z,22.10
2018-09-19T18:53:17.434Z,22.00
2018-09-19T18:55:48.802Z,22.00
2018-09-19T18:58:17.465Z,21.90
2018-09-19T19:01:05.573Z,21.90
2018-09-19T19:03:34.160Z,21.80
2018-09-19T19:06:02.791Z,21.80
2018-09-19T19:08:31.344Z,21.70
2018-09-19T19:10:59.924Z,21.70
2018-09-19T19:13:28.449Z,21.60
2018-09-19T19:15:56.889Z,21.50
2018-09-19T19:21:33.561Z,21.40
2018-09-19T19:24:02.164Z,21.40
2018-09-19T19:26:31.651Z,21.30
2018-09-19T19:31:50.984Z,21.30
2018-09-19T19:34:19.448Z,21.20
2018-09-19T19:36:48.054Z,21.20
2018-09-19T19:39:16.525Z,21.20
2018-09-19T19:41:45.069Z,21.10
2018-09-19T19:44:16.268Z,21.10
2018-09-19T19:46:44.826Z,21.10
2018-09-19T19:49:13.301Z,21.10
2018-09-19T19:51:41.918Z,21.10
2018-09-19T19:54:10.655Z,21.00
2018-09-19T19:56:42.746Z,20.90
2018-09-19T19:59:12.839Z,20.90
2018-09-19T20:01:41.676Z,20.80
2018-09-19T20:04:10.299Z,20.80
2018-09-19T20:13:09.620Z,20.60
2018-09-19T20:15:43.388Z,20.50
2018-09-19T20:20:47.465Z,20.40
2018-09-19T20:23:16.432Z,20.40
2018-09-19T20:25:55.094Z,20.40
2018-09-19T20:28:26.132Z,20.30
2018-09-19T20:30:54.638Z,20.20
2018-09-19T20:33:24.590Z,20.20
2018-09-19T20:38:48.525Z,20.10
2018-09-19T20:41:37.780Z,20.00
2018-09-19T20:44:08.759Z,20.00
2018-09-19T20:46:38.496Z,19.90
2018-09-19T20:49:14.188Z,19.90
2018-09-19T20:51:56.807Z,19.80
2018-09-19T20:54:30.871Z,19.80
2018-09-19T20:57:00.708Z,19.70
2018-09-19T20:59:29.387Z,19.60
2018-09-19T21:01:58.926Z,19.50
2018-09-19T21:04:34.148Z,19.50
2018-09-19T21:07:08.367Z,19.50
2018-09-19T21:09:36.929Z,19.40
2018-09-19T21:12:11.610Z,19.40
2018-09-19T21:14:40.003Z,19.30
2018-09-19T21:26:00.788Z,19.10
2018-09-19T21:28:29.275Z,19.10
2018-09-19T21:30:57.825Z,19.00
2018-09-19T21:33:26.230Z,19.00
2018-09-19T21:35:54.664Z,19.00
2018-09-19T21:41:35.033Z,18.90
2018-09-19T21:44:03.424Z,18.80
2018-09-19T21:46:32.258Z,18.80
2018-09-19T21:49:00.666Z,18.70
2018-09-19T21:51:42.719Z,18.70
2018-09-19T22:01:20.164Z,18.50
2018-09-19T22:04:06.958Z,18.50
2018-09-19T22:06:35.573Z,18.40
2018-09-19T22:09:12.003Z,18.30
2018-09-19T22:11:56.714Z,18.30
2018-09-19T22:14:27.394Z,18.20
2018-09-19T22:16:56.100Z,18.20
2018-09-19T22:19:24.545Z,18.10
2018-09-19T22:21:53.086Z,18.10
2018-09-19T22:24:22.910Z,18.00
2018-09-19T22:33:38.813Z,18.00
2018-09-19T22:36:13.085Z,17.90
2018-09-19T22:38:48.500Z,17.70
2018-09-19T22:41:16.938Z,17.70
2018-09-19T22:43:45.341Z,17.60
2018-09-19T22:46:15.887Z,17.60
2018-09-19T22:48:54.538Z,17.60
2018-09-19T22:51:36.620Z,17.50
2018-09-19T22:54:05.170Z,17.50
2018-09-19T22:56:33.600Z,17.50
2018-09-19T22:59:02.237Z,17.50
2018-09-19T23:01:41.984Z,17.50
2018-09-19T23:04:10.428Z,17.40
2018-09-19T23:06:38.815Z,17.40
2018-09-19T23:09:08.045Z,17.40
2018-09-19T23:11:39.234Z,17.30
2018-09-19T23:14:14.056Z,17.30
2018-09-19T23:16:46.032Z,17.20
2018-09-19T23:19:14.591Z,17.20
2018-09-19T23:21:47.892Z,17.10
2018-09-19T23:24:19.722Z,17.10
2018-09-19T23:26:48.231Z,17.00
2018-09-19T23:29:16.586Z,17.00
2018-09-19T23:31:45.517Z,16.90
2018-09-19T23:34:15.425Z,16.90
2018-09-19T23:37:02.952Z,16.90
2018-09-19T23:39:31.468Z,16.80
2018-09-19T23:42:04.420Z,16.80
2018-09-19T23:44:34.340Z,16.70
2018-09-19T23:47:03.053Z,16.70
2018-09-19T23:49:32.160Z,16.70
2018-09-19T23:52:02.472Z,16.60
2018-09-19T23:54:31.502Z,16.60
2018-09-19T23:56:59.992Z,16.60
2018-09-19T23:59:28.420Z,16.50
